sensor_id;sensor_type;location;lat;lon;timestamp;pressure;altitude;pressure_sealevel;temperature;humidity
32181;BME280;19172;51.504;3.894;2023-01-29T00:00:05;102993.25;;;11.17;67.70
32181;BME280;19172;51.504;3.894;2023-01-29T00:02:39;102985.50;;;11.23;67.72
32181;BME280;19172;51.504;3.894;2023-01-29T00:05:07;102978.28;;;11.44;68.21
32181;BME280;19172;51.504;3.894;2023-01-29T00:07:54;102974.81;;;11.45;68.24
32181;BME280;19172;51.504;3.894;2023-01-29T00:10:23;102979.66;;;11.33;67.00
32181;BME280;19172;51.504;3.894;2023-01-29T00:12:51;102995.84;;;10.90;67.24
32181;BME280;19172;51.504;3.894;2023-01-29T00:15:19;102982.19;;;11.03;67.39
32181;BME280;19172;51.504;3.894;2023-01-29T00:17:47;102986.59;;;11.03;68.42
32181;BME280;19172;51.504;3.894;2023-01-29T00:20:15;102976.47;;;11.17;68.69
32181;BME280;19172;51.504;3.894;2023-01-29T00:22:44;102971.72;;;11.33;68.92
32181;BME280;19172;51.504;3.894;2023-01-29T00:25:12;102968.50;;;11.42;68.50
32181;BME280;19172;51.504;3.894;2023-01-29T00:27:40;102956.13;;;11.42;67.59
32181;BME280;19172;51.504;3.894;2023-01-29T00:30:08;102971.16;;;11.42;67.36
32181;BME280;19172;51.504;3.894;2023-01-29T00:32:39;102975.91;;;11.27;67.48
32181;BME280;19172;51.504;3.894;2023-01-29T00:35:08;102960.63;;;11.18;67.48
32181;BME280;19172;51.504;3.894;2023-01-29T00:37:36;102960.78;;;11.23;68.26
32181;BME280;19172;51.504;3.894;2023-01-29T00:40:04;102959.81;;;10.94;67.50
32181;BME280;19172;51.504;3.894;2023-01-29T00:42:32;102947.09;;;11.09;68.97
32181;BME280;19172;51.504;3.894;2023-01-29T00:45:19;102946.81;;;11.01;68.55
32181;BME280;19172;51.504;3.894;2023-01-29T00:47:46;102949.72;;;11.09;68.68
32181;BME280;19172;51.504;3.894;2023-01-29T00:50:14;102942.63;;;11.08;67.91
32181;BME280;19172;51.504;3.894;2023-01-29T00:52:42;102950.03;;;11.18;67.93
32181;BME280;19172;51.504;3.894;2023-01-29T00:55:11;102952.25;;;11.31;68.12
32181;BME280;19172;51.504;3.894;2023-01-29T00:57:39;102957.09;;;10.92;67.89
32181;BME280;19172;51.504;3.894;2023-01-29T01:00:10;102944.13;;;11.00;68.82
32181;BME280;19172;51.504;3.894;2023-01-29T01:02:38;102946.97;;;11.06;68.68
32181;BME280;19172;51.504;3.894;2023-01-29T01:05:26;102931.47;;;10.91;68.18
32181;BME280;19172;51.504;3.894;2023-01-29T01:07:56;102929.63;;;10.89;69.06
32181;BME280;19172;51.504;3.894;2023-01-29T01:10:31;102932.25;;;10.63;69.12
32181;BME280;19172;51.504;3.894;2023-01-29T01:13:02;102932.84;;;10.55;69.76
32181;BME280;19172;51.504;3.894;2023-01-29T01:15:34;102933.09;;;10.62;69.50
32181;BME280;19172;51.504;3.894;2023-01-29T01:18:03;102926.66;;;10.54;69.76
32181;BME280;19172;51.504;3.894;2023-01-29T01:20:33;102936.19;;;10.75;70.80
32181;BME280;19172;51.504;3.894;2023-01-29T01:23:02;102940.47;;;10.71;70.12
32181;BME280;19172;51.504;3.894;2023-01-29T01:25:31;102926.66;;;10.80;70.46
32181;BME280;19172;51.504;3.894;2023-01-29T01:27:59;102936.00;;;10.69;69.58
32181;BME280;19172;51.504;3.894;2023-01-29T01:30:29;102932.34;;;10.90;69.93
32181;BME280;19172;51.504;3.894;2023-01-29T01:32:58;102935.50;;;10.80;69.59
32181;BME280;19172;51.504;3.894;2023-01-29T01:35:26;102929.66;;;11.15;70.82
32181;BME280;19172;51.504;3.894;2023-01-29T01:37:54;102941.06;;;11.13;69.28
32181;BME280;19172;51.504;3.894;2023-01-29T01:40:23;102941.66;;;11.31;69.37
32181;BME280;19172;51.504;3.894;2023-01-29T01:42:54;102934.03;;;11.15;69.26
32181;BME280;19172;51.504;3.894;2023-01-29T01:45:32;102940.28;;;11.17;69.53
32181;BME280;19172;51.504;3.894;2023-01-29T01:50:48;102953.66;;;10.95;68.30
32181;BME280;19172;51.504;3.894;2023-01-29T01:53:30;102962.97;;;10.84;69.16
32181;BME280;19172;51.504;3.894;2023-01-29T01:56:04;102963.19;;;10.90;68.58
32181;BME280;19172;51.504;3.894;2023-01-29T01:58:49;102961.28;;;10.86;68.97
32181;BME280;19172;51.504;3.894;2023-01-29T02:01:19;102958.38;;;10.78;69.53
32181;BME280;19172;51.504;3.894;2023-01-29T02:04:11;102955.84;;;11.06;69.43
32181;BME280;19172;51.504;3.894;2023-01-29T02:07:02;102950.22;;;10.97;68.92
32181;BME280;19172;51.504;3.894;2023-01-29T02:12:19;102939.97;;;11.08;68.97
32181;BME280;19172;51.504;3.894;2023-01-29T02:14:47;102941.41;;;10.98;68.38
32181;BME280;19172;51.504;3.894;2023-01-29T02:17:19;102937.28;;;11.06;68.57
32181;BME280;19172;51.504;3.894;2023-01-29T02:22:39;102935.81;;;10.89;69.32
32181;BME280;19172;51.504;3.894;2023-01-29T02:28:05;102928.56;;;11.09;69.02
32181;BME280;19172;51.504;3.894;2023-01-29T02:33:29;102937.84;;;11.23;68.94
32181;BME280;19172;51.504;3.894;2023-01-29T02:44:38;102937.34;;;11.08;67.65
32181;BME280;19172;51.504;3.894;2023-01-29T02:47:19;102937.41;;;11.09;68.83
32181;BME280;19172;51.504;3.894;2023-01-29T02:50:18;102933.13;;;10.88;68.63
32181;BME280;19172;51.504;3.894;2023-01-29T02:53:07;102935.56;;;11.07;68.44
32181;BME280;19172;51.504;3.894;2023-01-29T02:55:47;102931.22;;;11.10;68.75
32181;BME280;19172;51.504;3.894;2023-01-29T02:58:34;102925.28;;;10.91;68.19
32181;BME280;19172;51.504;3.894;2023-01-29T03:01:33;102917.53;;;11.24;68.23
32181;BME280;19172;51.504;3.894;2023-01-29T03:04:11;102929.19;;;11.02;68.38
32181;BME280;19172;51.504;3.894;2023-01-29T03:06:47;102919.66;;;11.07;69.12
32181;BME280;19172;51.504;3.894;2023-01-29T03:11:55;102909.66;;;10.98;68.79
32181;BME280;19172;51.504;3.894;2023-01-29T03:14:34;102904.22;;;10.94;69.59
32181;BME280;19172;51.504;3.894;2023-01-29T03:17:29;102903.44;;;10.98;68.49
32181;BME280;19172;51.504;3.894;2023-01-29T03:20:02;102910.84;;;11.08;69.41
32181;BME280;19172;51.504;3.894;2023-01-29T03:22:37;102900.81;;;11.25;68.61
32181;BME280;19172;51.504;3.894;2023-01-29T03:25:09;102908.69;;;11.23;68.55
32181;BME280;19172;51.504;3.894;2023-01-29T03:28:02;102907.31;;;11.07;68.89
32181;BME280;19172;51.504;3.894;2023-01-29T03:30:54;102918.22;;;11.17;68.56
32181;BME280;19172;51.504;3.894;2023-01-29T03:34:06;102916.06;;;11.32;68.08
32181;BME280;19172;51.504;3.894;2023-01-29T03:36:45;102917.34;;;11.18;69.09
32181;BME280;19172;51.504;3.894;2023-01-29T03:39:17;102921.84;;;11.20;68.82
32181;BME280;19172;51.504;3.894;2023-01-29T03:41:59;102916.00;;;11.30;68.96
32181;BME280;19172;51.504;3.894;2023-01-29T03:56:22;102914.13;;;11.01;67.57
32181;BME280;19172;51.504;3.894;2023-01-29T03:59:29;102913.66;;;11.12;68.46
32181;BME280;19172;51.504;3.894;2023-01-29T04:02:07;102908.84;;;11.26;67.92
32181;BME280;19172;51.504;3.894;2023-01-29T04:04:41;102904.38;;;11.25;68.68
32181;BME280;19172;51.504;3.894;2023-01-29T04:07:16;102903.00;;;11.38;67.53
32181;BME280;19172;51.504;3.894;2023-01-29T04:10:13;102901.41;;;11.43;67.34
32181;BME280;19172;51.504;3.894;2023-01-29T04:13:10;102901.94;;;11.33;67.03
32181;BME280;19172;51.504;3.894;2023-01-29T04:15:45;102899.44;;;11.36;67.53
32181;BME280;19172;51.504;3.894;2023-01-29T04:18:16;102895.91;;;11.37;67.21
32181;BME280;19172;51.504;3.894;2023-01-29T04:21:04;102893.44;;;11.43;67.83
32181;BME280;19172;51.504;3.894;2023-01-29T04:23:34;102887.47;;;11.48;67.04
32181;BME280;19172;51.504;3.894;2023-01-29T04:26:48;102886.69;;;11.24;68.01
32181;BME280;19172;51.504;3.894;2023-01-29T04:33:11;102866.72;;;11.07;69.04
32181;BME280;19172;51.504;3.894;2023-01-29T04:44:08;102846.25;;;10.76;69.68
32181;BME280;19172;51.504;3.894;2023-01-29T04:47:09;102850.47;;;10.44;70.52
32181;BME280;19172;51.504;3.894;2023-01-29T04:52:18;102859.72;;;10.08;69.93
32181;BME280;19172;51.504;3.894;2023-01-29T05:00:37;102848.41;;;10.36;71.21
32181;BME280;19172;51.504;3.894;2023-01-29T05:03:11;102838.94;;;10.42;71.19
32181;BME280;19172;51.504;3.894;2023-01-29T05:05:43;102838.06;;;10.43;72.17
32181;BME280;19172;51.504;3.894;2023-01-29T05:08:16;102841.69;;;10.71;71.40
32181;BME280;19172;51.504;3.894;2023-01-29T05:10:48;102832.78;;;10.95;70.91
32181;BME280;19172;51.504;3.894;2023-01-29T05:13:19;102837.16;;;10.93;70.60
32181;BME280;19172;51.504;3.894;2023-01-29T05:16:45;102836.31;;;10.42;70.43
32181;BME280;19172;51.504;3.894;2023-01-29T05:18:54;102822.88;;;10.36;69.50
32181;BME280;19172;51.504;3.894;2023-01-29T05:21:23;102831.47;;;10.07;70.24
32181;BME280;19172;51.504;3.894;2023-01-29T05:26:37;102833.97;;;10.26;71.22
32181;BME280;19172;51.504;3.894;2023-01-29T05:29:24;102832.25;;;10.28;71.80
32181;BME280;19172;51.504;3.894;2023-01-29T05:31:52;102834.44;;;10.15;71.52
32181;BME280;19172;51.504;3.894;2023-01-29T05:34:20;102815.94;;;10.40;72.07
32181;BME280;19172;51.504;3.894;2023-01-29T05:36:48;102809.84;;;10.17;70.93
32181;BME280;19172;51.504;3.894;2023-01-29T05:39:16;102825.03;;;10.48;71.84
32181;BME280;19172;51.504;3.894;2023-01-29T05:41:44;102811.38;;;10.36;72.30
32181;BME280;19172;51.504;3.894;2023-01-29T05:44:12;102806.06;;;10.61;71.49
32181;BME280;19172;51.504;3.894;2023-01-29T05:46:40;102806.63;;;10.78;72.20
32181;BME280;19172;51.504;3.894;2023-01-29T05:49:08;102812.88;;;10.80;71.94
32181;BME280;19172;51.504;3.894;2023-01-29T05:51:36;102804.66;;;10.99;70.98
32181;BME280;19172;51.504;3.894;2023-01-29T05:54:04;102803.88;;;10.23;69.92
32181;BME280;19172;51.504;3.894;2023-01-29T05:56:31;102797.97;;;10.56;70.48
32181;BME280;19172;51.504;3.894;2023-01-29T05:58:59;102799.25;;;10.68;70.83
32181;BME280;19172;51.504;3.894;2023-01-29T06:01:27;102799.97;;;10.63;71.21
32181;BME280;19172;51.504;3.894;2023-01-29T06:03:55;102795.19;;;10.52;70.93
32181;BME280;19172;51.504;3.894;2023-01-29T06:06:23;102795.28;;;10.55;70.99
32181;BME280;19172;51.504;3.894;2023-01-29T06:08:51;102793.28;;;10.23;71.12
32181;BME280;19172;51.504;3.894;2023-01-29T06:11:19;102789.28;;;10.34;71.32
32181;BME280;19172;51.504;3.894;2023-01-29T06:13:47;102792.03;;;10.63;72.04
32181;BME280;19172;51.504;3.894;2023-01-29T06:16:15;102795.06;;;10.74;71.33
32181;BME280;19172;51.504;3.894;2023-01-29T06:18:43;102795.00;;;11.01;71.54
32181;BME280;19172;51.504;3.894;2023-01-29T06:21:12;102798.09;;;10.86;70.87
32181;BME280;19172;51.504;3.894;2023-01-29T06:23:40;102801.09;;;10.70;70.43
32181;BME280;19172;51.504;3.894;2023-01-29T06:26:13;102793.81;;;10.91;70.24
32181;BME280;19172;51.504;3.894;2023-01-29T06:28:41;102794.19;;;11.02;70.25
32181;BME280;19172;51.504;3.894;2023-01-29T06:31:10;102790.03;;;11.10;70.87
32181;BME280;19172;51.504;3.894;2023-01-29T06:33:58;102791.69;;;11.06;69.67
32181;BME280;19172;51.504;3.894;2023-01-29T06:36:26;102793.72;;;11.15;69.55
32181;BME280;19172;51.504;3.894;2023-01-29T06:38:54;102792.97;;;10.91;69.75
32181;BME280;19172;51.504;3.894;2023-01-29T06:41:21;102800.38;;;11.02;69.39
32181;BME280;19172;51.504;3.894;2023-01-29T06:43:52;102799.38;;;10.99;68.63
32181;BME280;19172;51.504;3.894;2023-01-29T06:46:19;102808.38;;;10.77;69.64
32181;BME280;19172;51.504;3.894;2023-01-29T06:48:47;102808.63;;;10.33;69.29
32181;BME280;19172;51.504;3.894;2023-01-29T06:51:15;102794.59;;;10.60;70.49
32181;BME280;19172;51.504;3.894;2023-01-29T06:53:43;102794.69;;;10.63;70.38
32181;BME280;19172;51.504;3.894;2023-01-29T06:56:13;102798.94;;;10.58;69.78
32181;BME280;19172;51.504;3.894;2023-01-29T06:58:41;102797.22;;;10.60;70.09
32181;BME280;19172;51.504;3.894;2023-01-29T07:01:11;102804.81;;;10.50;70.86
32181;BME280;19172;51.504;3.894;2023-01-29T07:03:59;102801.28;;;10.49;70.04
32181;BME280;19172;51.504;3.894;2023-01-29T07:06:28;102802.97;;;10.47;70.62
32181;BME280;19172;51.504;3.894;2023-01-29T07:08:56;102792.38;;;10.47;70.50
32181;BME280;19172;51.504;3.894;2023-01-29T07:11:24;102791.56;;;10.75;71.29
32181;BME280;19172;51.504;3.894;2023-01-29T07:13:52;102785.41;;;10.49;71.03
32181;BME280;19172;51.504;3.894;2023-01-29T07:16:20;102795.81;;;10.45;70.87
32181;BME280;19172;51.504;3.894;2023-01-29T07:18:48;102790.66;;;10.75;71.77
32181;BME280;19172;51.504;3.894;2023-01-29T07:21:16;102785.28;;;10.72;70.56
32181;BME280;19172;51.504;3.894;2023-01-29T07:23:43;102780.28;;;10.81;70.47
32181;BME280;19172;51.504;3.894;2023-01-29T07:26:11;102774.34;;;10.61;71.18
32181;BME280;19172;51.504;3.894;2023-01-29T07:28:40;102782.28;;;10.88;70.98
32181;BME280;19172;51.504;3.894;2023-01-29T07:31:12;102783.38;;;10.68;70.57
32181;BME280;19172;51.504;3.894;2023-01-29T07:33:42;102783.75;;;10.53;70.65
32181;BME280;19172;51.504;3.894;2023-01-29T07:36:11;102784.53;;;10.24;70.33
32181;BME280;19172;51.504;3.894;2023-01-29T07:38:39;102775.53;;;10.71;70.78
32181;BME280;19172;51.504;3.894;2023-01-29T07:41:09;102770.16;;;10.69;70.81
32181;BME280;19172;51.504;3.894;2023-01-29T07:43:38;102774.25;;;10.33;69.99
32181;BME280;19172;51.504;3.894;2023-01-29T07:46:06;102769.75;;;10.55;70.01
32181;BME280;19172;51.504;3.894;2023-01-29T07:48:34;102778.44;;;10.53;70.34
32181;BME280;19172;51.504;3.894;2023-01-29T07:51:02;102788.00;;;10.75;71.04
32181;BME280;19172;51.504;3.894;2023-01-29T07:53:30;102779.97;;;10.45;70.92
32181;BME280;19172;51.504;3.894;2023-01-29T07:55:57;102780.00;;;10.21;70.29
32181;BME280;19172;51.504;3.894;2023-01-29T07:58:25;102782.81;;;10.26;71.20
32181;BME280;19172;51.504;3.894;2023-01-29T08:00:53;102775.06;;;10.30;70.78
32181;BME280;19172;51.504;3.894;2023-01-29T08:03:21;102779.72;;;10.64;71.09
32181;BME280;19172;51.504;3.894;2023-01-29T08:05:49;102781.13;;;10.80;70.62
32181;BME280;19172;51.504;3.894;2023-01-29T08:08:17;102782.25;;;10.61;71.08
32181;BME280;19172;51.504;3.894;2023-01-29T08:10:45;102777.47;;;10.49;70.13
32181;BME280;19172;51.504;3.894;2023-01-29T08:13:13;102783.28;;;10.65;70.97
32181;BME280;19172;51.504;3.894;2023-01-29T08:15:42;102786.34;;;10.51;70.02
32181;BME280;19172;51.504;3.894;2023-01-29T08:18:12;102783.09;;;10.33;70.32
32181;BME280;19172;51.504;3.894;2023-01-29T08:20:40;102773.94;;;10.00;70.46
32181;BME280;19172;51.504;3.894;2023-01-29T08:23:14;102776.91;;;10.33;71.60
32181;BME280;19172;51.504;3.894;2023-01-29T08:25:42;102776.38;;;10.70;71.22
32181;BME280;19172;51.504;3.894;2023-01-29T08:28:10;102782.53;;;10.69;70.71
32181;BME280;19172;51.504;3.894;2023-01-29T08:30:39;102774.69;;;10.72;70.30
32181;BME280;19172;51.504;3.894;2023-01-29T08:33:07;102775.22;;;10.61;70.93
32181;BME280;19172;51.504;3.894;2023-01-29T08:35:36;102769.44;;;10.21;70.42
32181;BME280;19172;51.504;3.894;2023-01-29T08:38:04;102765.94;;;10.22;70.36
32181;BME280;19172;51.504;3.894;2023-01-29T08:40:33;102771.47;;;10.04;70.61
32181;BME280;19172;51.504;3.894;2023-01-29T08:43:04;102769.72;;;10.29;71.14
32181;BME280;19172;51.504;3.894;2023-01-29T08:45:37;102764.31;;;10.02;71.87
32181;BME280;19172;51.504;3.894;2023-01-29T08:48:05;102753.34;;;10.14;72.15
32181;BME280;19172;51.504;3.894;2023-01-29T08:50:34;102759.03;;;10.02;71.98
32181;BME280;19172;51.504;3.894;2023-01-29T08:53:04;102754.34;;;9.93;72.39
32181;BME280;19172;51.504;3.894;2023-01-29T08:55:36;102756.56;;;10.06;73.09
32181;BME280;19172;51.504;3.894;2023-01-29T08:58:07;102752.09;;;9.80;72.59
32181;BME280;19172;51.504;3.894;2023-01-29T09:00:37;102747.34;;;10.19;73.05
32181;BME280;19172;51.504;3.894;2023-01-29T09:03:05;102746.97;;;10.34;73.59
32181;BME280;19172;51.504;3.894;2023-01-29T09:05:36;102746.31;;;10.14;72.91
32181;BME280;19172;51.504;3.894;2023-01-29T09:08:06;102743.47;;;10.35;73.89
32181;BME280;19172;51.504;3.894;2023-01-29T09:10:35;102747.31;;;9.94;73.70
32181;BME280;19172;51.504;3.894;2023-01-29T09:13:03;102747.56;;;10.25;74.06
32181;BME280;19172;51.504;3.894;2023-01-29T09:15:31;102752.47;;;9.66;73.89
32181;BME280;19172;51.504;3.894;2023-01-29T09:18:02;102754.50;;;9.27;74.56
32181;BME280;19172;51.504;3.894;2023-01-29T09:20:31;102751.38;;;9.61;76.13
32181;BME280;19172;51.504;3.894;2023-01-29T09:23:06;102745.34;;;9.88;76.99
32181;BME280;19172;51.504;3.894;2023-01-29T09:25:36;102749.44;;;10.04;76.36
32181;BME280;19172;51.504;3.894;2023-01-29T09:28:04;102743.66;;;10.41;77.10
32181;BME280;19172;51.504;3.894;2023-01-29T09:30:33;102744.28;;;10.32;76.38
32181;BME280;19172;51.504;3.894;2023-01-29T09:33:05;102743.28;;;10.55;75.56
32181;BME280;19172;51.504;3.894;2023-01-29T09:35:33;102746.47;;;10.45;75.78
32181;BME280;19172;51.504;3.894;2023-01-29T09:38:01;102737.81;;;10.49;75.42
32181;BME280;19172;51.504;3.894;2023-01-29T09:41:24;102743.47;;;10.35;74.83
32181;BME280;19172;51.504;3.894;2023-01-29T09:43:50;102741.28;;;10.48;75.69
32181;BME280;19172;51.504;3.894;2023-01-29T09:46:42;102740.19;;;9.91;75.20
32181;BME280;19172;51.504;3.894;2023-01-29T09:49:24;102741.13;;;10.17;76.46
32181;BME280;19172;51.504;3.894;2023-01-29T09:52:01;102741.50;;;10.04;76.65
32181;BME280;19172;51.504;3.894;2023-01-29T10:00:53;102727.66;;;9.86;76.62
32181;BME280;19172;51.504;3.894;2023-01-29T10:15:02;102719.28;;;10.23;76.43
32181;BME280;19172;51.504;3.894;2023-01-29T10:20:49;102703.84;;;9.61;77.43
32181;BME280;19172;51.504;3.894;2023-01-29T10:25:39;102702.69;;;9.52;79.09
32181;BME280;19172;51.504;3.894;2023-01-29T10:30:50;102700.34;;;9.62;80.00
32181;BME280;19172;51.504;3.894;2023-01-29T10:33:29;102713.44;;;9.11;79.74
32181;BME280;19172;51.504;3.894;2023-01-29T10:36:21;102718.19;;;9.43;80.35
32181;BME280;19172;51.504;3.894;2023-01-29T10:38:52;102718.38;;;9.73;80.86
32181;BME280;19172;51.504;3.894;2023-01-29T10:44:25;102720.16;;;9.98;81.46
32181;BME280;19172;51.504;3.894;2023-01-29T10:47:20;102708.47;;;9.91;80.55
32181;BME280;19172;51.504;3.894;2023-01-29T10:52:50;102705.03;;;9.21;80.51
32181;BME280;19172;51.504;3.894;2023-01-29T10:55:38;102689.09;;;9.67;81.21
32181;BME280;19172;51.504;3.894;2023-01-29T10:58:33;102681.97;;;9.90;81.50
32181;BME280;19172;51.504;3.894;2023-01-29T11:01:03;102679.66;;;9.74;81.13
32181;BME280;19172;51.504;3.894;2023-01-29T11:03:32;102678.06;;;9.53;80.90
32181;BME280;19172;51.504;3.894;2023-01-29T11:09:00;102683.25;;;9.50;81.04
32181;BME280;19172;51.504;3.894;2023-01-29T11:11:43;102661.94;;;9.96;81.62
32181;BME280;19172;51.504;3.894;2023-01-29T11:14:22;102668.63;;;9.85;81.09
32181;BME280;19172;51.504;3.894;2023-01-29T11:16:52;102657.88;;;10.06;80.45
32181;BME280;19172;51.504;3.894;2023-01-29T11:19:38;102648.03;;;10.02;80.29
32181;BME280;19172;51.504;3.894;2023-01-29T11:22:20;102652.25;;;10.21;80.14
32181;BME280;19172;51.504;3.894;2023-01-29T11:25:15;102649.25;;;9.86;80.01
32181;BME280;19172;51.504;3.894;2023-01-29T11:27:50;102636.69;;;9.54;79.96
32181;BME280;19172;51.504;3.894;2023-01-29T11:30:29;102647.25;;;9.54;79.48
32181;BME280;19172;51.504;3.894;2023-01-29T11:33:20;102640.41;;;9.84;80.51
32181;BME280;19172;51.504;3.894;2023-01-29T11:35:50;102635.34;;;9.65;80.89
32181;BME280;19172;51.504;3.894;2023-01-29T11:38:27;102633.44;;;10.13;81.01
32181;BME280;19172;51.504;3.894;2023-01-29T11:41:05;102634.03;;;10.04;79.83
32181;BME280;19172;51.504;3.894;2023-01-29T11:43:33;102633.31;;;10.35;80.80
32181;BME280;19172;51.504;3.894;2023-01-29T11:46:04;102626.31;;;10.10;79.95
32181;BME280;19172;51.504;3.894;2023-01-29T11:48:49;102618.00;;;9.73;79.66
32181;BME280;19172;51.504;3.894;2023-01-29T11:51:28;102617.19;;;10.01;80.04
32181;BME280;19172;51.504;3.894;2023-01-29T11:54:01;102615.38;;;10.00;79.56
32181;BME280;19172;51.504;3.894;2023-01-29T11:56:31;102609.78;;;10.16;79.74
32181;BME280;19172;51.504;3.894;2023-01-29T11:59:01;102608.13;;;10.46;79.94
32181;BME280;19172;51.504;3.894;2023-01-29T12:01:36;102606.69;;;9.77;79.08
32181;BME280;19172;51.504;3.894;2023-01-29T12:04:24;102598.81;;;9.79;79.24
32181;BME280;19172;51.504;3.894;2023-01-29T12:06:53;102598.13;;;10.11;79.40
32181;BME280;19172;51.504;3.894;2023-01-29T12:09:26;102587.06;;;9.69;79.29
32181;BME280;19172;51.504;3.894;2023-01-29T12:12:35;102588.41;;;10.10;79.59
32181;BME280;19172;51.504;3.894;2023-01-29T12:15:24;102572.56;;;10.11;79.62
32181;BME280;19172;51.504;3.894;2023-01-29T12:21:03;102555.63;;;10.91;79.21
32181;BME280;19172;51.504;3.894;2023-01-29T12:23:37;102547.56;;;10.87;77.87
32181;BME280;19172;51.504;3.894;2023-01-29T12:26:16;102537.41;;;10.71;76.33
32181;BME280;19172;51.504;3.894;2023-01-29T12:34:23;102520.53;;;10.98;75.16
32181;BME280;19172;51.504;3.894;2023-01-29T12:37:01;102517.16;;;10.73;75.56
32181;BME280;19172;51.504;3.894;2023-01-29T12:39:31;102518.28;;;10.81;74.88
32181;BME280;19172;51.504;3.894;2023-01-29T12:42:08;102513.19;;;11.20;75.10
32181;BME280;19172;51.504;3.894;2023-01-29T12:50:13;102499.84;;;10.84;75.41
32181;BME280;19172;51.504;3.894;2023-01-29T12:52:54;102493.00;;;11.25;75.52
32181;BME280;19172;51.504;3.894;2023-01-29T12:55:24;102489.63;;;11.30;75.48
32181;BME280;19172;51.504;3.894;2023-01-29T12:57:58;102494.88;;;10.94;75.91
32181;BME280;19172;51.504;3.894;2023-01-29T13:03:07;102488.00;;;11.02;74.78
32181;BME280;19172;51.504;3.894;2023-01-29T13:05:47;102485.06;;;10.92;74.92
32181;BME280;19172;51.504;3.894;2023-01-29T13:08:28;102477.84;;;10.85;75.59
32181;BME280;19172;51.504;3.894;2023-01-29T13:11:00;102466.97;;;10.43;76.08
32181;BME280;19172;51.504;3.894;2023-01-29T13:13:42;102464.16;;;10.70;76.17
32181;BME280;19172;51.504;3.894;2023-01-29T13:16:13;102459.09;;;10.46;77.05
32181;BME280;19172;51.504;3.894;2023-01-29T13:21:32;102448.66;;;10.83;77.15
32181;BME280;19172;51.504;3.894;2023-01-29T13:24:08;102449.31;;;10.43;76.85
32181;BME280;19172;51.504;3.894;2023-01-29T13:26:39;102440.50;;;10.76;77.87
32181;BME280;19172;51.504;3.894;2023-01-29T13:29:21;102431.47;;;11.35;78.19
32181;BME280;19172;51.504;3.894;2023-01-29T13:31:53;102427.03;;;10.67;77.21
32181;BME280;19172;51.504;3.894;2023-01-29T13:34:26;102417.13;;;10.27;77.50
32181;BME280;19172;51.504;3.894;2023-01-29T13:36:59;102412.16;;;11.03;78.08
32181;BME280;19172;51.504;3.894;2023-01-29T13:39:36;102409.72;;;11.12;77.49
32181;BME280;19172;51.504;3.894;2023-01-29T13:45:02;102400.19;;;10.84;77.35
32181;BME280;19172;51.504;3.894;2023-01-29T13:47:35;102392.66;;;10.67;77.82
32181;BME280;19172;51.504;3.894;2023-01-29T13:50:28;102386.28;;;10.93;77.96
32181;BME280;19172;51.504;3.894;2023-01-29T13:53:02;102393.47;;;10.98;77.11
32181;BME280;19172;51.504;3.894;2023-01-29T13:55:34;102398.72;;;10.30;76.82
32181;BME280;19172;51.504;3.894;2023-01-29T13:58:04;102385.59;;;11.00;79.01
32181;BME280;19172;51.504;3.894;2023-01-29T14:05:41;102367.31;;;10.43;78.96
32181;BME280;19172;51.504;3.894;2023-01-29T14:10:41;102377.16;;;10.80;80.82
32181;BME280;19172;51.504;3.894;2023-01-29T14:18:35;102363.47;;;10.98;79.76
32181;BME280;19172;51.504;3.894;2023-01-29T14:21:16;102357.47;;;11.41;80.14
32181;BME280;19172;51.504;3.894;2023-01-29T14:23:49;102363.03;;;11.53;79.38
32181;BME280;19172;51.504;3.894;2023-01-29T14:26:39;102358.03;;;11.28;77.81
32181;BME280;19172;51.504;3.894;2023-01-29T14:29:24;102362.44;;;11.27;79.17
32181;BME280;19172;51.504;3.894;2023-01-29T14:32:13;102353.97;;;11.43;78.53
32181;BME280;19172;51.504;3.894;2023-01-29T14:34:49;102354.25;;;11.55;78.91
32181;BME280;19172;51.504;3.894;2023-01-29T14:37:30;102360.09;;;10.69;77.06
32181;BME280;19172;51.504;3.894;2023-01-29T14:42:57;102342.88;;;11.59;77.85
32181;BME280;19172;51.504;3.894;2023-01-29T14:45:38;102345.44;;;11.18;78.49
32181;BME280;19172;51.504;3.894;2023-01-29T14:53:12;102333.75;;;11.45;77.11
32181;BME280;19172;51.504;3.894;2023-01-29T14:55:54;102315.84;;;11.74;76.83
32181;BME280;19172;51.504;3.894;2023-01-29T15:01:17;102324.81;;;10.69;77.69
32181;BME280;19172;51.504;3.894;2023-01-29T15:03:50;102327.44;;;11.03;78.09
32181;BME280;19172;51.504;3.894;2023-01-29T15:06:30;102311.97;;;11.21;79.00
32181;BME280;19172;51.504;3.894;2023-01-29T15:09:12;102327.47;;;10.69;78.12
32181;BME280;19172;51.504;3.894;2023-01-29T15:17:21;102310.63;;;10.65;79.32
32181;BME280;19172;51.504;3.894;2023-01-29T15:19:49;102306.66;;;11.20;80.88
32181;BME280;19172;51.504;3.894;2023-01-29T15:22:20;102308.56;;;11.27;81.21
32181;BME280;19172;51.504;3.894;2023-01-29T15:25:05;102305.06;;;11.26;81.11
32181;BME280;19172;51.504;3.894;2023-01-29T15:27:34;102315.13;;;11.05;79.62
32181;BME280;19172;51.504;3.894;2023-01-29T15:30:05;102304.56;;;11.44;80.43
32181;BME280;19172;51.504;3.894;2023-01-29T15:32:37;102309.50;;;10.55;78.97
32181;BME280;19172;51.504;3.894;2023-01-29T15:35:27;102303.50;;;10.98;79.61
32181;BME280;19172;51.504;3.894;2023-01-29T15:38:05;102299.22;;;10.68;80.54
32181;BME280;19172;51.504;3.894;2023-01-29T15:40:33;102299.16;;;11.02;80.38
32181;BME280;19172;51.504;3.894;2023-01-29T15:43:01;102296.53;;;11.41;80.03
32181;BME280;19172;51.504;3.894;2023-01-29T15:45:40;102290.19;;;10.95;80.03
32181;BME280;19172;51.504;3.894;2023-01-29T15:48:15;102288.94;;;11.17;80.79
32181;BME280;19172;51.504;3.894;2023-01-29T15:50:45;102295.06;;;10.79;79.96
32181;BME280;19172;51.504;3.894;2023-01-29T15:53:18;102291.31;;;10.69;80.45